createdAt,value
2019-05-14T00:00:11.773Z,5.67
2019-05-14T00:02:41.376Z,5.60
2019-05-14T00:05:12.019Z,5.53
2019-05-14T00:07:41.432Z,5.46
2019-05-14T00:10:11.880Z,5.40
2019-05-14T00:12:41.879Z,5.33
2019-05-14T00:15:11.099Z,5.25
2019-05-14T00:17:41.652Z,5.19
2019-05-14T00:20:13.365Z,5.12
2019-05-14T00:22:41.653Z,5.02
2019-05-14T00:25:11.725Z,4.92
2019-05-14T00:27:41.468Z,4.86
2019-05-14T00:30:11.490Z,4.79
2019-05-14T00:32:41.353Z,4.70
2019-05-14T00:35:11.128Z,4.64
2019-05-14T00:37:41.431Z,4.56
2019-05-14T00:40:11.707Z,4.54
2019-05-14T00:42:41.460Z,4.50
2019-05-14T00:45:11.699Z,4.39
2019-05-14T00:47:41.756Z,4.40
2019-05-14T00:50:11.311Z,4.38
2019-05-14T00:52:42.211Z,4.34
2019-05-14T00:55:11.744Z,4.32
2019-05-14T00:57:42.613Z,4.27
2019-05-14T01:00:12.092Z,4.23
2019-05-14T01:02:41.632Z,4.15
2019-05-14T01:05:12.446Z,4.08
2019-05-14T01:07:42.284Z,3.98
2019-05-14T01:10:11.567Z,3.93
2019-05-14T01:12:41.350Z,3.82
2019-05-14T01:15:14.124Z,3.75
2019-05-14T01:17:42.140Z,3.67
2019-05-14T01:20:12.299Z,3.61
2019-05-14T01:22:42.293Z,3.49
2019-05-14T01:25:12.019Z,3.46
2019-05-14T01:27:41.361Z,3.45
2019-05-14T01:30:12.277Z,3.45
2019-05-14T01:32:42.022Z,3.42
2019-05-14T01:35:12.025Z,3.37
2019-05-14T01:37:41.592Z,3.29
2019-05-14T01:40:11.483Z,3.25
2019-05-14T01:42:41.550Z,3.14
2019-05-14T01:45:23.544Z,3.10
2019-05-14T01:47:41.443Z,3.02
2019-05-14T01:50:11.273Z,3.03
2019-05-14T01:52:41.477Z,3.04
2019-05-14T01:55:11.401Z,3.02
2019-05-14T01:57:42.273Z,2.93
2019-05-14T02:00:11.487Z,2.96
2019-05-14T02:02:41.826Z,2.95
2019-05-14T02:05:12.251Z,2.89
2019-05-14T02:07:42.032Z,2.89
2019-05-14T02:10:11.742Z,2.78
2019-05-14T02:12:42.366Z,2.78
2019-05-14T02:15:12.083Z,2.74
2019-05-14T02:17:41.405Z,2.65
2019-05-14T02:20:12.368Z,2.59
2019-05-14T02:22:41.675Z,2.44
2019-05-14T02:25:11.685Z,2.46
2019-05-14T02:27:41.442Z,2.48
2019-05-14T02:30:10.644Z,2.46
2019-05-14T02:32:40.638Z,2.46
2019-05-14T02:35:10.049Z,2.47
2019-05-14T02:37:40.173Z,2.47
2019-05-14T02:40:10.198Z,2.45
2019-05-14T02:42:40.071Z,2.45
2019-05-14T02:45:09.268Z,2.42
2019-05-14T02:47:39.668Z,2.42
2019-05-14T02:50:09.975Z,2.39
2019-05-14T02:52:40.226Z,2.28
2019-05-14T02:55:09.724Z,2.26
2019-05-14T02:57:39.403Z,2.22
2019-05-14T03:00:10.210Z,2.20
2019-05-14T03:02:40.425Z,2.16
2019-05-14T03:05:09.841Z,2.13
2019-05-14T03:07:39.362Z,2.12
2019-05-14T03:10:10.065Z,2.11
2019-05-14T03:12:39.574Z,2.12
2019-05-14T03:15:09.632Z,2.10
2019-05-14T03:17:40.398Z,2.05
2019-05-14T03:20:09.320Z,2.00
2019-05-14T03:22:46.223Z,1.97
2019-05-14T03:25:10.190Z,1.93
2019-05-14T03:27:40.507Z,1.93
2019-05-14T03:30:12.812Z,1.93
2019-05-14T03:32:42.483Z,1.90
2019-05-14T03:35:13.151Z,1.89
2019-05-14T03:37:39.917Z,1.77
2019-05-14T03:40:09.481Z,1.74
2019-05-14T03:42:39.925Z,1.72
2019-05-14T03:45:08.769Z,1.67
2019-05-14T03:47:39.388Z,1.70
2019-05-14T03:50:10.274Z,1.64
2019-05-14T03:52:39.956Z,1.63
2019-05-14T03:55:09.328Z,1.60
2019-05-14T03:57:39.812Z,1.60
2019-05-14T04:00:10.325Z,0.99
2019-05-14T04:02:39.180Z,1.61
2019-05-14T04:05:09.494Z,1.69
2019-05-14T04:07:39.326Z,1.70
2019-05-14T04:10:10.261Z,1.75
2019-05-14T04:12:40.474Z,1.78
2019-05-14T04:15:09.846Z,1.29
2019-05-14T04:17:42.315Z,1.93
2019-05-14T04:20:09.775Z,1.99
2019-05-14T04:22:40.242Z,2.10
2019-05-14T04:25:11.131Z,2.18
2019-05-14T04:27:40.404Z,2.25
2019-05-14T08:48:40.686Z,13.26
2019-05-14T08:51:10.065Z,13.42
2019-05-14T08:53:38.864Z,13.60
2019-05-14T08:56:08.322Z,13.77
2019-05-14T08:58:38.579Z,14.01
2019-05-14T09:01:08.225Z,14.25
2019-05-14T09:03:39.241Z,14.44
2019-05-14T09:06:08.919Z,14.49
2019-05-14T09:08:38.954Z,14.62
2019-05-14T09:11:09.493Z,14.65
2019-05-14T09:13:38.323Z,14.73
2019-05-14T09:16:09.272Z,14.80
2019-05-14T09:18:39.000Z,14.78
2019-05-14T09:21:08.735Z,14.90
2019-05-14T09:23:39.181Z,15.07
2019-05-14T09:26:09.620Z,15.12
2019-05-14T09:28:39.285Z,15.12
2019-05-14T09:31:08.566Z,15.29
2019-05-14T09:33:38.915Z,15.44
2019-05-14T09:36:18.143Z,15.61
2019-05-14T09:38:42.114Z,16.04
2019-05-14T09:41:14.769Z,16.40
2019-05-14T09:43:39.234Z,16.63
2019-05-14T09:46:08.970Z,17.00
2019-05-14T09:48:38.047Z,17.35
2019-05-14T09:51:09.071Z,17.46
2019-05-14T09:53:38.310Z,17.49
2019-05-14T09:56:09.181Z,17.63
2019-05-14T09:58:38.771Z,17.58
2019-05-14T10:01:08.470Z,17.56
2019-05-14T10:03:39.035Z,17.39
2019-05-14T10:06:09.778Z,17.46
2019-05-14T10:08:39.083Z,17.25
2019-05-14T10:11:07.506Z,17.02
2019-05-14T10:13:35.989Z,16.99
2019-05-14T10:16:04.541Z,17.03
2019-05-14T10:18:32.835Z,17.09
2019-05-14T10:21:01.294Z,16.98
2019-05-14T10:23:29.638Z,17.37
2019-05-14T10:25:58.250Z,18.54
2019-05-14T10:28:28.799Z,19.69
2019-05-14T10:30:59.433Z,20.37
2019-05-14T10:33:28.763Z,20.10
2019-05-14T10:35:58.805Z,20.19
2019-05-14T10:38:29.349Z,19.83
2019-05-14T10:40:58.432Z,19.35
2019-05-14T10:43:28.793Z,19.19
2019-05-14T10:45:58.048Z,18.85
2019-05-14T10:48:28.944Z,20.84
2019-05-14T10:51:02.835Z,21.65
2019-05-14T10:53:29.042Z,21.04
2019-05-14T10:55:58.285Z,20.80
2019-05-14T10:58:29.144Z,20.28
2019-05-14T11:00:58.992Z,19.85
2019-05-14T11:03:29.966Z,19.31
2019-05-14T11:05:58.788Z,21.74
2019-05-14T11:08:29.679Z,20.83
2019-05-14T11:11:03.219Z,20.83
2019-05-14T11:13:29.251Z,23.70
2019-05-14T11:15:59.561Z,21.79
2019-05-14T11:18:29.150Z,21.04
2019-05-14T11:21:18.089Z,20.60
2019-05-14T11:23:29.699Z,20.38
2019-05-14T11:25:58.138Z,21.31
2019-05-14T11:28:28.625Z,21.27
2019-05-14T11:30:56.623Z,20.51
2019-05-14T11:33:25.047Z,19.69
2019-05-14T11:35:53.330Z,21.89
2019-05-14T11:38:31.821Z,23.81
2019-05-14T11:40:51.846Z,24.38
2019-05-14T11:43:20.179Z,28.50
2019-05-14T11:45:48.709Z,26.14
2019-05-14T11:48:19.263Z,25.21
2019-05-14T11:50:49.132Z,24.05
2019-05-14T11:53:20.057Z,23.23
2019-05-14T11:55:50.317Z,22.38
2019-05-14T17:11:14.016Z,17.61
2019-05-14T17:13:42.354Z,17.77
2019-05-14T17:16:10.646Z,18.05
2019-05-14T17:18:38.984Z,18.14
2019-05-14T17:21:09.179Z,18.34
2019-05-14T17:23:39.275Z,18.33
2019-05-14T17:26:08.888Z,18.11
2019-05-14T17:28:40.142Z,18.12
2019-05-14T17:31:07.617Z,18.21
2019-05-14T17:33:39.158Z,18.29
2019-05-14T17:36:06.387Z,18.22
2019-05-14T17:38:34.716Z,17.96
2019-05-14T17:41:03.023Z,17.88
2019-05-14T17:43:31.412Z,17.63
2019-05-14T17:45:59.787Z,17.44
2019-05-14T17:48:28.529Z,17.20
2019-05-14T17:50:58.948Z,17.04
2019-05-14T17:53:29.104Z,16.81
2019-05-14T17:55:59.299Z,16.59
2019-05-14T17:58:28.761Z,16.33
2019-05-14T18:00:58.161Z,16.07
2019-05-14T18:03:28.858Z,15.92
2019-05-14T18:05:58.142Z,15.50
2019-05-14T18:08:29.770Z,15.36
2019-05-14T18:10:59.105Z,15.19
2019-05-14T18:13:26.624Z,15.02
2019-05-14T18:15:54.962Z,14.86
2019-05-14T18:18:23.304Z,14.67
2019-05-14T18:20:51.589Z,14.43
2019-05-14T18:23:20.135Z,14.25
2019-05-14T18:26:03.801Z,14.02
2019-05-14T18:28:18.800Z,13.81
2019-05-14T18:30:49.086Z,13.60
2019-05-14T18:33:18.778Z,13.39
2019-05-14T18:35:50.207Z,13.15
2019-05-14T18:38:19.405Z,12.97
2019-05-14T18:40:49.535Z,12.71
2019-05-14T18:43:18.810Z,12.54
2019-05-14T18:45:48.095Z,12.38
2019-05-14T18:48:19.225Z,12.19
2019-05-14T18:50:48.460Z,12.01
2019-05-14T18:53:18.935Z,11.85
2019-05-14T18:55:48.938Z,11.73
2019-05-14T18:58:19.546Z,11.56
2019-05-14T19:00:47.872Z,11.41
2019-05-14T19:03:17.025Z,11.28
2019-05-14T19:05:45.407Z,11.11
2019-05-14T19:08:13.910Z,10.90
2019-05-14T19:10:42.429Z,10.75
2019-05-14T19:13:10.847Z,10.61
2019-05-14T19:15:42.195Z,10.51
2019-05-14T19:18:10.637Z,10.36
2019-05-14T19:20:39.313Z,10.20
2019-05-14T19:23:08.186Z,10.06
2019-05-14T19:25:38.790Z,9.94
2019-05-14T19:28:08.837Z,9.82
2019-05-14T19:30:38.147Z,9.69
2019-05-14T19:33:08.524Z,9.56
2019-05-14T19:35:39.268Z,9.45
2019-05-14T19:40:39.168Z,8.86
2019-05-14T19:43:09.436Z,9.11
2019-05-14T19:45:38.878Z,8.98
2019-05-14T19:48:08.160Z,8.88
2019-05-14T19:50:38.631Z,8.78
2019-05-14T19:53:08.920Z,8.72
2019-05-14T19:55:39.032Z,8.65
2019-05-14T19:58:07.082Z,8.58
2019-05-14T20:00:38.054Z,8.53
2019-05-14T20:03:05.636Z,8.49
2019-05-14T20:05:34.003Z,8.48
2019-05-14T20:08:02.417Z,8.49
2019-05-14T20:10:30.773Z,8.52
2019-05-14T20:12:59.331Z,8.53
2019-05-14T20:15:27.829Z,8.55
2019-05-14T20:17:58.195Z,8.59
2019-05-14T20:20:28.841Z,8.60
2019-05-14T20:22:59.001Z,8.60
2019-05-14T20:25:28.051Z,8.56
2019-05-14T20:27:58.594Z,6.66
2019-05-14T20:30:29.243Z,8.58
2019-05-14T20:32:59.181Z,8.60
2019-05-14T20:35:34.327Z,8.60
2019-05-14T20:37:58.563Z,8.54
2019-05-14T20:40:28.443Z,8.53
2019-05-14T20:42:58.942Z,8.51
2019-05-14T20:45:28.935Z,8.52
2019-05-14T20:47:58.571Z,8.47
2019-05-14T20:50:28.960Z,8.46
2019-05-14T20:52:59.201Z,8.42
2019-05-14T20:55:28.592Z,8.42
2019-05-14T20:57:58.758Z,8.39
2019-05-14T21:00:29.211Z,8.34
2019-05-14T21:02:59.555Z,8.33
2019-05-14T21:05:28.711Z,8.34
2019-05-14T21:07:59.049Z,8.31
2019-05-14T21:10:29.196Z,8.25
2019-05-14T21:12:58.093Z,8.21
2019-05-14T21:15:28.515Z,8.15
2019-05-14T21:17:59.275Z,8.09
2019-05-14T21:20:28.246Z,8.02
2019-05-14T21:22:58.473Z,7.98
2019-05-14T21:25:29.287Z,7.94
2019-05-14T21:27:58.703Z,7.93
2019-05-14T21:30:29.621Z,7.89
2019-05-14T21:33:00.663Z,7.85
2019-05-14T21:35:29.303Z,7.82
2019-05-14T21:37:59.406Z,7.81
2019-05-14T21:40:29.213Z,7.75
2019-05-14T21:42:58.064Z,7.72
2019-05-14T21:45:26.414Z,7.71
2019-05-14T21:47:54.753Z,7.69
2019-05-14T21:50:23.127Z,7.65
2019-05-14T21:52:51.599Z,7.59
2019-05-14T21:55:20.039Z,7.57
2019-05-14T21:57:56.213Z,7.53
2019-05-14T22:00:21.627Z,7.51
2019-05-14T22:02:50.075Z,7.47
2019-05-14T22:05:18.955Z,7.43
2019-05-14T22:07:48.523Z,7.43
2019-05-14T22:10:19.038Z,7.43
2019-05-14T22:12:48.724Z,7.45
2019-05-14T22:15:18.401Z,7.43
2019-05-14T22:17:48.985Z,7.47
2019-05-14T22:20:19.253Z,7.54
2019-05-14T22:22:48.350Z,7.59
2019-05-14T22:25:18.750Z,7.66
2019-05-14T22:27:48.370Z,7.73
2019-05-14T22:30:18.230Z,7.77
2019-05-14T22:32:47.221Z,7.77
2019-05-14T22:35:16.080Z,7.74
2019-05-14T22:37:44.393Z,7.75
2019-05-14T22:40:14.977Z,7.73
2019-05-14T22:42:43.296Z,7.73
2019-05-14T22:45:12.050Z,7.68
2019-05-14T22:47:40.665Z,7.64
2019-05-14T22:50:09.257Z,7.56
2019-05-14T22:52:38.652Z,7.52
2019-05-14T22:55:09.111Z,7.49
2019-05-14T22:57:39.233Z,7.40
2019-05-14T23:00:09.263Z,7.35
2019-05-14T23:02:38.280Z,7.29
2019-05-14T23:05:09.609Z,7.20
2019-05-14T23:07:38.528Z,7.14
2019-05-14T23:10:09.917Z,7.07
2019-05-14T23:12:38.750Z,6.99
2019-05-14T23:15:07.442Z,6.88
2019-05-14T23:17:35.785Z,6.78
2019-05-14T23:20:05.835Z,6.72
2019-05-14T23:22:35.115Z,6.63
2019-05-14T23:25:04.409Z,6.57
2019-05-14T23:27:32.742Z,6.48
2019-05-14T23:30:01.057Z,6.40
2019-05-14T23:32:29.346Z,6.32
2019-05-14T23:34:58.434Z,6.26
2019-05-14T23:37:29.040Z,6.18
2019-05-14T23:39:58.554Z,6.09
2019-05-14T23:42:27.936Z,6.01
2019-05-14T23:44:58.408Z,5.96
2019-05-14T23:47:28.750Z,5.88
2019-05-14T23:49:58.394Z,5.80
2019-05-14T23:52:29.358Z,5.74
2019-05-14T23:54:56.843Z,5.66
2019-05-14T23:57:25.142Z,5.61
2019-05-14T23:59:53.449Z,5.55
